Witherspoon, Arkansas
Current Conditions -  °F | °C
As of 7:56 AM on Monday 24 Nov 2014 (Local Time) from KADF Reporting Station
Clear Clear  
Wind Chill: 41°   Ceiling: Unl
Heat Index: 45°   Visibility: 10mi
Dew Point: 40°   Wind: 7mph
Humidity: 82%   Direction: 240°WSW
Pressure: 29.92"   Gusts: NA
Location:  34.0941°N, 93.0475°W
Report Text: KADF 241356Z AUTO 24006KT 10SM CLR 07/04 A2992 RMK AO2 T00720044 SLP147
Loading
Personal Weather Stations






























Interactive Weather Map New forecast layout! Learn more

10-Day Weather Forecast

Advertisements
Track Severe Weather on mobile